sensor_id;sensor_type;location;lat;lon;timestamp;temperature;humidity
15184;DHT22;7693;49.266;7.104;2022-10-30T04:44:36;11.30;99.90
15184;DHT22;7693;49.266;7.104;2022-10-30T04:47:01;11.30;99.90
15184;DHT22;7693;49.266;7.104;2022-10-30T04:49:27;11.30;99.90
15184;DHT22;7693;49.266;7.104;2022-10-30T04:51:52;11.30;99.90
15184;DHT22;7693;49.266;7.104;2022-10-30T04:54:18;11.30;99.90
15184;DHT22;7693;49.266;7.104;2022-10-30T04:56:45;11.40;99.90
15184;DHT22;7693;49.266;7.104;2022-10-30T04:59:10;11.40;99.90
15184;DHT22;7693;49.266;7.104;2022-10-30T05:01:36;11.40;99.90
15184;DHT22;7693;49.266;7.104;2022-10-30T05:04:02;11.40;99.90
15184;DHT22;7693;49.266;7.104;2022-10-30T05:06:28;11.40;99.90
15184;DHT22;7693;49.266;7.104;2022-10-30T05:08:55;11.30;99.90
15184;DHT22;7693;49.266;7.104;2022-10-30T05:11:21;11.30;99.90
15184;DHT22;7693;49.266;7.104;2022-10-30T05:13:47;11.30;99.90
15184;DHT22;7693;49.266;7.104;2022-10-30T05:16:13;11.30;99.90
15184;DHT22;7693;49.266;7.104;2022-10-30T05:18:38;11.30;99.90
15184;DHT22;7693;49.266;7.104;2022-10-30T05:21:04;11.30;99.90
15184;DHT22;7693;49.266;7.104;2022-10-30T05:23:30;11.30;99.90
15184;DHT22;7693;49.266;7.104;2022-10-30T05:25:55;11.30;99.90
15184;DHT22;7693;49.266;7.104;2022-10-30T05:28:21;11.30;99.90
15184;DHT22;7693;49.266;7.104;2022-10-30T05:30:46;11.30;99.90
15184;DHT22;7693;49.266;7.104;2022-10-30T05:33:12;11.30;99.90
15184;DHT22;7693;49.266;7.104;2022-10-30T05:35:40;11.30;99.90
15184;DHT22;7693;49.266;7.104;2022-10-30T05:38:06;11.20;99.90
15184;DHT22;7693;49.266;7.104;2022-10-30T05:40:33;11.10;99.90
15184;DHT22;7693;49.266;7.104;2022-10-30T05:42:59;11.10;99.90
15184;DHT22;7693;49.266;7.104;2022-10-30T05:45:24;11.10;99.90
15184;DHT22;7693;49.266;7.104;2022-10-30T05:47:57;11.10;99.90
15184;DHT22;7693;49.266;7.104;2022-10-30T05:50:24;11.10;99.90
15184;DHT22;7693;49.266;7.104;2022-10-30T05:52:54;11.10;99.90
15184;DHT22;7693;49.266;7.104;2022-10-30T05:55:20;11.10;99.90
15184;DHT22;7693;49.266;7.104;2022-10-30T05:57:45;11.10;99.90
15184;DHT22;7693;49.266;7.104;2022-10-30T06:00:11;11.00;99.90
15184;DHT22;7693;49.266;7.104;2022-10-30T06:02:37;11.00;99.90
15184;DHT22;7693;49.266;7.104;2022-10-30T06:05:03;11.00;99.90
15184;DHT22;7693;49.266;7.104;2022-10-30T06:07:28;11.00;99.90
15184;DHT22;7693;49.266;7.104;2022-10-30T06:09:54;11.00;99.90
15184;DHT22;7693;49.266;7.104;2022-10-30T06:12:19;11.00;99.90
15184;DHT22;7693;49.266;7.104;2022-10-30T06:14:45;10.90;99.90
15184;DHT22;7693;49.266;7.104;2022-10-30T06:17:11;10.90;99.90
15184;DHT22;7693;49.266;7.104;2022-10-30T06:19:36;10.90;99.90
15184;DHT22;7693;49.266;7.104;2022-10-30T06:22:02;10.90;99.90
15184;DHT22;7693;49.266;7.104;2022-10-30T06:24:27;10.90;99.90
15184;DHT22;7693;49.266;7.104;2022-10-30T06:26:53;10.90;99.90
15184;DHT22;7693;49.266;7.104;2022-10-30T06:29:18;10.90;99.90
15184;DHT22;7693;49.266;7.104;2022-10-30T06:31:44;10.90;99.90
15184;DHT22;7693;49.266;7.104;2022-10-30T06:34:09;10.80;99.90
15184;DHT22;7693;49.266;7.104;2022-10-30T06:36:35;10.80;99.90
15184;DHT22;7693;49.266;7.104;2022-10-30T06:39:00;10.80;99.90
15184;DHT22;7693;49.266;7.104;2022-10-30T06:41:26;10.80;99.90
15184;DHT22;7693;49.266;7.104;2022-10-30T06:43:51;10.80;99.90
15184;DHT22;7693;49.266;7.104;2022-10-30T06:46:17;10.90;99.90
15184;DHT22;7693;49.266;7.104;2022-10-30T06:48:42;10.90;99.90
15184;DHT22;7693;49.266;7.104;2022-10-30T06:51:08;11.00;99.90
15184;DHT22;7693;49.266;7.104;2022-10-30T06:53:34;11.00;99.90
15184;DHT22;7693;49.266;7.104;2022-10-30T06:56:01;11.00;99.90
15184;DHT22;7693;49.266;7.104;2022-10-30T06:58:27;11.00;99.90
15184;DHT22;7693;49.266;7.104;2022-10-30T07:00:53;11.00;99.90
15184;DHT22;7693;49.266;7.104;2022-10-30T07:03:19;11.00;99.90
15184;DHT22;7693;49.266;7.104;2022-10-30T07:05:45;11.00;99.90
15184;DHT22;7693;49.266;7.104;2022-10-30T07:08:11;11.00;99.90
15184;DHT22;7693;49.266;7.104;2022-10-30T07:10:38;11.00;99.90
15184;DHT22;7693;49.266;7.104;2022-10-30T07:13:03;11.00;99.90
15184;DHT22;7693;49.266;7.104;2022-10-30T07:15:29;11.00;99.90
15184;DHT22;7693;49.266;7.104;2022-10-30T07:17:57;11.10;99.90
15184;DHT22;7693;49.266;7.104;2022-10-30T07:20:23;11.10;99.90
15184;DHT22;7693;49.266;7.104;2022-10-30T07:22:49;11.10;99.90
15184;DHT22;7693;49.266;7.104;2022-10-30T07:25:15;11.10;99.90
15184;DHT22;7693;49.266;7.104;2022-10-30T07:27:48;11.20;99.90
15184;DHT22;7693;49.266;7.104;2022-10-30T07:30:16;11.20;99.90
15184;DHT22;7693;49.266;7.104;2022-10-30T07:32:42;11.20;99.90
15184;DHT22;7693;49.266;7.104;2022-10-30T07:35:09;11.30;99.90
15184;DHT22;7693;49.266;7.104;2022-10-30T07:37:36;11.40;99.90
15184;DHT22;7693;49.266;7.104;2022-10-30T07:40:02;11.40;99.90
15184;DHT22;7693;49.266;7.104;2022-10-30T07:42:28;11.50;99.90
15184;DHT22;7693;49.266;7.104;2022-10-30T07:44:53;11.60;99.90
15184;DHT22;7693;49.266;7.104;2022-10-30T07:47:19;11.70;99.90
15184;DHT22;7693;49.266;7.104;2022-10-30T07:49:44;11.80;99.90
15184;DHT22;7693;49.266;7.104;2022-10-30T07:52:10;11.90;99.90
15184;DHT22;7693;49.266;7.104;2022-10-30T07:54:35;12.00;99.90
15184;DHT22;7693;49.266;7.104;2022-10-30T07:57:01;12.00;99.90
15184;DHT22;7693;49.266;7.104;2022-10-30T07:59:27;12.10;99.90
15184;DHT22;7693;49.266;7.104;2022-10-30T08:01:53;12.10;99.90
15184;DHT22;7693;49.266;7.104;2022-10-30T08:04:18;12.20;99.90
15184;DHT22;7693;49.266;7.104;2022-10-30T08:06:44;12.20;99.90
15184;DHT22;7693;49.266;7.104;2022-10-30T08:09:09;12.30;99.90
15184;DHT22;7693;49.266;7.104;2022-10-30T08:11:35;12.40;99.90
15184;DHT22;7693;49.266;7.104;2022-10-30T08:14:01;12.40;99.90
15184;DHT22;7693;49.266;7.104;2022-10-30T08:16:26;12.50;99.90
15184;DHT22;7693;49.266;7.104;2022-10-30T08:18:52;12.60;99.90
15184;DHT22;7693;49.266;7.104;2022-10-30T08:21:18;12.70;99.90
15184;DHT22;7693;49.266;7.104;2022-10-30T08:23:44;12.70;99.90
15184;DHT22;7693;49.266;7.104;2022-10-30T08:26:10;12.80;99.90
15184;DHT22;7693;49.266;7.104;2022-10-30T08:28:35;12.90;99.90
15184;DHT22;7693;49.266;7.104;2022-10-30T08:31:01;12.90;99.90
15184;DHT22;7693;49.266;7.104;2022-10-30T08:33:27;13.00;99.90
15184;DHT22;7693;49.266;7.104;2022-10-30T08:35:55;13.10;99.90
15184;DHT22;7693;49.266;7.104;2022-10-30T08:38:22;13.20;99.90
15184;DHT22;7693;49.266;7.104;2022-10-30T08:40:47;13.30;99.90
15184;DHT22;7693;49.266;7.104;2022-10-30T08:43:13;13.40;99.90
15184;DHT22;7693;49.266;7.104;2022-10-30T08:45:39;13.50;99.90
15184;DHT22;7693;49.266;7.104;2022-10-30T08:48:06;13.60;99.90
15184;DHT22;7693;49.266;7.104;2022-10-30T08:50:34;13.70;99.90
15184;DHT22;7693;49.266;7.104;2022-10-30T08:53:04;13.80;99.90
15184;DHT22;7693;49.266;7.104;2022-10-30T08:55:31;13.90;99.90
15184;DHT22;7693;49.266;7.104;2022-10-30T08:57:57;13.90;99.90
15184;DHT22;7693;49.266;7.104;2022-10-30T09:00:23;14.10;99.90
15184;DHT22;7693;49.266;7.104;2022-10-30T09:02:49;14.20;99.90
15184;DHT22;7693;49.266;7.104;2022-10-30T09:05:15;14.30;99.90
15184;DHT22;7693;49.266;7.104;2022-10-30T09:07:41;14.40;99.90
15184;DHT22;7693;49.266;7.104;2022-10-30T09:10:07;14.60;99.90
15184;DHT22;7693;49.266;7.104;2022-10-30T09:12:33;14.60;99.90
15184;DHT22;7693;49.266;7.104;2022-10-30T09:14:59;14.70;99.90
15184;DHT22;7693;49.266;7.104;2022-10-30T09:17:24;14.90;99.90
15184;DHT22;7693;49.266;7.104;2022-10-30T09:19:50;14.90;99.90
15184;DHT22;7693;49.266;7.104;2022-10-30T09:22:15;15.00;99.90
15184;DHT22;7693;49.266;7.104;2022-10-30T09:24:41;15.10;99.90
15184;DHT22;7693;49.266;7.104;2022-10-30T09:27:07;15.20;99.90
15184;DHT22;7693;49.266;7.104;2022-10-30T09:29:33;15.30;99.90
15184;DHT22;7693;49.266;7.104;2022-10-30T09:32:00;15.40;99.90
15184;DHT22;7693;49.266;7.104;2022-10-30T09:34:26;15.50;99.90
15184;DHT22;7693;49.266;7.104;2022-10-30T09:36:52;15.50;99.90
15184;DHT22;7693;49.266;7.104;2022-10-30T09:39:17;15.70;99.90
15184;DHT22;7693;49.266;7.104;2022-10-30T09:42:18;15.70;99.90
15184;DHT22;7693;49.266;7.104;2022-10-30T09:50:13;16.10;99.90
15184;DHT22;7693;49.266;7.104;2022-10-30T09:55:54;16.40;99.90
15184;DHT22;7693;49.266;7.104;2022-10-30T10:01:24;16.80;99.90
15184;DHT22;7693;49.266;7.104;2022-10-30T10:04:03;17.10;99.90
15184;DHT22;7693;49.266;7.104;2022-10-30T10:06:33;17.40;99.90
15184;DHT22;7693;49.266;7.104;2022-10-30T10:09:06;17.60;99.90
15184;DHT22;7693;49.266;7.104;2022-10-30T10:11:39;17.80;99.90
15184;DHT22;7693;49.266;7.104;2022-10-30T10:14:25;18.00;99.90
15184;DHT22;7693;49.266;7.104;2022-10-30T10:16:53;18.10;99.90
15184;DHT22;7693;49.266;7.104;2022-10-30T10:21:58;18.20;99.90
15184;DHT22;7693;49.266;7.104;2022-10-30T10:24:33;18.40;99.90
15184;DHT22;7693;49.266;7.104;2022-10-30T13:42:24;21.40;99.90
15184;DHT22;7693;49.266;7.104;2022-10-30T13:53:25;21.70;99.90
15184;DHT22;7693;49.266;7.104;2022-10-30T13:55:54;21.70;99.90
15184;DHT22;7693;49.266;7.104;2022-10-30T13:59:28;21.70;99.90
15184;DHT22;7693;49.266;7.104;2022-10-30T14:01:38;21.80;99.90
15184;DHT22;7693;49.266;7.104;2022-10-30T16:08:46;19.10;99.90
15184;DHT22;7693;49.266;7.104;2022-10-30T16:11:13;19.00;99.90
15184;DHT22;7693;49.266;7.104;2022-10-30T16:13:40;19.00;99.90
15184;DHT22;7693;49.266;7.104;2022-10-30T16:16:15;18.90;99.90
15184;DHT22;7693;49.266;7.104;2022-10-30T16:18:41;18.90;99.90
15184;DHT22;7693;49.266;7.104;2022-10-30T16:21:09;18.90;99.90
15184;DHT22;7693;49.266;7.104;2022-10-30T16:23:40;18.80;99.90
15184;DHT22;7693;49.266;7.104;2022-10-30T16:26:33;18.80;99.90
15184;DHT22;7693;49.266;7.104;2022-10-30T16:29:18;18.70;99.90
15184;DHT22;7693;49.266;7.104;2022-10-30T16:31:47;18.70;99.90
15184;DHT22;7693;49.266;7.104;2022-10-30T16:34:30;18.60;99.90
15184;DHT22;7693;49.266;7.104;2022-10-30T16:36:59;18.60;99.90
15184;DHT22;7693;49.266;7.104;2022-10-30T16:39:27;18.60;99.90
15184;DHT22;7693;49.266;7.104;2022-10-30T16:41:55;18.50;99.90
15184;DHT22;7693;49.266;7.104;2022-10-30T16:44:33;18.40;99.90
15184;DHT22;7693;49.266;7.104;2022-10-30T16:47:23;18.40;99.90
15184;DHT22;7693;49.266;7.104;2022-10-30T16:49:51;18.40;99.90
15184;DHT22;7693;49.266;7.104;2022-10-30T16:52:19;18.30;99.90
15184;DHT22;7693;49.266;7.104;2022-10-30T16:54:47;18.30;99.90
15184;DHT22;7693;49.266;7.104;2022-10-30T16:57:21;18.30;99.90
15184;DHT22;7693;49.266;7.104;2022-10-30T16:59:51;18.20;99.90
15184;DHT22;7693;49.266;7.104;2022-10-30T17:02:22;18.10;99.90
15184;DHT22;7693;49.266;7.104;2022-10-30T17:04:51;18.10;99.90
15184;DHT22;7693;49.266;7.104;2022-10-30T17:07:20;18.00;99.90
15184;DHT22;7693;49.266;7.104;2022-10-30T17:09:48;17.90;99.90
15184;DHT22;7693;49.266;7.104;2022-10-30T17:12:24;17.80;99.90
15184;DHT22;7693;49.266;7.104;2022-10-30T17:17:36;17.50;99.90
15184;DHT22;7693;49.266;7.104;2022-10-30T19:45:34;14.20;99.90
15184;DHT22;7693;49.266;7.104;2022-10-30T19:48:03;14.20;99.90
15184;DHT22;7693;49.266;7.104;2022-10-30T19:50:29;14.20;99.90
15184;DHT22;7693;49.266;7.104;2022-10-30T19:52:57;14.20;99.90
15184;DHT22;7693;49.266;7.104;2022-10-30T19:55:24;14.20;99.90
15184;DHT22;7693;49.266;7.104;2022-10-30T19:57:51;14.10;99.90
15184;DHT22;7693;49.266;7.104;2022-10-30T20:02:45;14.10;99.90
15184;DHT22;7693;49.266;7.104;2022-10-30T20:05:13;14.10;99.90
15184;DHT22;7693;49.266;7.104;2022-10-30T20:07:40;14.10;99.90
15184;DHT22;7693;49.266;7.104;2022-10-30T20:10:17;14.10;99.90
15184;DHT22;7693;49.266;7.104;2022-10-30T20:12:43;14.00;99.90
15184;DHT22;7693;49.266;7.104;2022-10-30T20:15:21;14.00;99.90
15184;DHT22;7693;49.266;7.104;2022-10-30T20:17:47;14.00;99.90
15184;DHT22;7693;49.266;7.104;2022-10-30T20:22:47;13.90;99.90
15184;DHT22;7693;49.266;7.104;2022-10-30T20:25:13;13.90;99.90
15184;DHT22;7693;49.266;7.104;2022-10-30T20:27:40;13.80;99.90
15184;DHT22;7693;49.266;7.104;2022-10-30T20:30:07;13.80;99.90
15184;DHT22;7693;49.266;7.104;2022-10-30T20:32:33;13.80;99.90
15184;DHT22;7693;49.266;7.104;2022-10-30T20:34:58;13.70;99.90
15184;DHT22;7693;49.266;7.104;2022-10-30T20:37:24;13.70;99.90
15184;DHT22;7693;49.266;7.104;2022-10-30T20:39:50;13.70;99.90
15184;DHT22;7693;49.266;7.104;2022-10-30T20:42:17;13.70;99.90
15184;DHT22;7693;49.266;7.104;2022-10-30T20:44:44;13.60;99.90
15184;DHT22;7693;49.266;7.104;2022-10-30T20:47:10;13.60;99.90
15184;DHT22;7693;49.266;7.104;2022-10-30T20:49:36;13.60;99.90
15184;DHT22;7693;49.266;7.104;2022-10-30T20:52:02;13.60;99.90
15184;DHT22;7693;49.266;7.104;2022-10-30T20:54:27;13.60;99.90
15184;DHT22;7693;49.266;7.104;2022-10-30T20:56:53;13.50;99.90
15184;DHT22;7693;49.266;7.104;2022-10-30T20:59:18;13.50;99.90
15184;DHT22;7693;49.266;7.104;2022-10-30T21:01:45;13.40;99.90
15184;DHT22;7693;49.266;7.104;2022-10-30T21:04:10;13.40;99.90
15184;DHT22;7693;49.266;7.104;2022-10-30T21:06:36;13.40;99.90
15184;DHT22;7693;49.266;7.104;2022-10-30T21:09:01;13.40;99.90
15184;DHT22;7693;49.266;7.104;2022-10-30T21:11:27;13.30;99.90
15184;DHT22;7693;49.266;7.104;2022-10-30T21:13:52;13.30;99.90
15184;DHT22;7693;49.266;7.104;2022-10-30T21:16:21;13.20;99.90
15184;DHT22;7693;49.266;7.104;2022-10-30T21:18:53;13.10;99.90
15184;DHT22;7693;49.266;7.104;2022-10-30T21:21:20;13.10;99.90
15184;DHT22;7693;49.266;7.104;2022-10-30T21:23:46;13.10;99.90
15184;DHT22;7693;49.266;7.104;2022-10-30T21:26:11;13.00;99.90
15184;DHT22;7693;49.266;7.104;2022-10-30T21:28:41;13.00;99.90
15184;DHT22;7693;49.266;7.104;2022-10-30T21:31:10;13.00;99.90
15184;DHT22;7693;49.266;7.104;2022-10-30T21:33:36;13.00;99.90
15184;DHT22;7693;49.266;7.104;2022-10-30T21:36:07;12.90;99.90
15184;DHT22;7693;49.266;7.104;2022-10-30T21:38:33;12.90;99.90
15184;DHT22;7693;49.266;7.104;2022-10-30T21:40:58;12.80;99.90
15184;DHT22;7693;49.266;7.104;2022-10-30T21:43:24;12.70;99.90
15184;DHT22;7693;49.266;7.104;2022-10-30T21:45:49;12.70;99.90
15184;DHT22;7693;49.266;7.104;2022-10-30T21:48:15;12.70;99.90
15184;DHT22;7693;49.266;7.104;2022-10-30T21:50:41;12.70;99.90
15184;DHT22;7693;49.266;7.104;2022-10-30T21:53:07;12.70;99.90
15184;DHT22;7693;49.266;7.104;2022-10-30T21:55:36;12.70;99.90
15184;DHT22;7693;49.266;7.104;2022-10-30T21:58:02;12.70;99.90
15184;DHT22;7693;49.266;7.104;2022-10-30T22:00:27;12.70;99.90
15184;DHT22;7693;49.266;7.104;2022-10-30T22:02:55;12.70;99.90
15184;DHT22;7693;49.266;7.104;2022-10-30T22:05:21;12.70;99.90
15184;DHT22;7693;49.266;7.104;2022-10-30T22:07:46;12.70;99.90
15184;DHT22;7693;49.266;7.104;2022-10-30T22:10:12;12.70;99.90
15184;DHT22;7693;49.266;7.104;2022-10-30T22:12:37;12.60;99.90
15184;DHT22;7693;49.266;7.104;2022-10-30T22:15:03;12.60;99.90
15184;DHT22;7693;49.266;7.104;2022-10-30T22:17:29;12.60;99.90
15184;DHT22;7693;49.266;7.104;2022-10-30T22:19:55;12.60;99.90
15184;DHT22;7693;49.266;7.104;2022-10-30T22:22:20;12.50;99.90
15184;DHT22;7693;49.266;7.104;2022-10-30T22:24:46;12.60;99.90
15184;DHT22;7693;49.266;7.104;2022-10-30T22:27:11;12.60;99.90
15184;DHT22;7693;49.266;7.104;2022-10-30T22:29:37;12.50;99.90
15184;DHT22;7693;49.266;7.104;2022-10-30T22:32:02;12.50;99.90
15184;DHT22;7693;49.266;7.104;2022-10-30T22:34:28;12.40;99.90
15184;DHT22;7693;49.266;7.104;2022-10-30T22:36:53;12.40;99.90
15184;DHT22;7693;49.266;7.104;2022-10-30T22:39:19;12.40;99.90
15184;DHT22;7693;49.266;7.104;2022-10-30T22:41:45;12.40;99.90
15184;DHT22;7693;49.266;7.104;2022-10-30T22:44:12;12.40;99.90
15184;DHT22;7693;49.266;7.104;2022-10-30T22:46:38;12.40;99.90
15184;DHT22;7693;49.266;7.104;2022-10-30T22:49:05;12.40;99.90
15184;DHT22;7693;49.266;7.104;2022-10-30T22:51:32;12.40;99.90
15184;DHT22;7693;49.266;7.104;2022-10-30T22:53:59;12.40;99.90
15184;DHT22;7693;49.266;7.104;2022-10-30T22:56:28;12.30;99.90
15184;DHT22;7693;49.266;7.104;2022-10-30T22:58:54;12.30;99.90
15184;DHT22;7693;49.266;7.104;2022-10-30T23:01:21;12.30;99.90
15184;DHT22;7693;49.266;7.104;2022-10-30T23:03:50;12.30;99.90
15184;DHT22;7693;49.266;7.104;2022-10-30T23:06:17;12.20;99.90
15184;DHT22;7693;49.266;7.104;2022-10-30T23:08:43;12.30;99.90
15184;DHT22;7693;49.266;7.104;2022-10-30T23:11:09;12.20;99.90
15184;DHT22;7693;49.266;7.104;2022-10-30T23:13:35;12.30;99.90
15184;DHT22;7693;49.266;7.104;2022-10-30T23:16:03;12.30;99.90
15184;DHT22;7693;49.266;7.104;2022-10-30T23:18:30;12.30;99.90
15184;DHT22;7693;49.266;7.104;2022-10-30T23:21:04;12.30;99.90
15184;DHT22;7693;49.266;7.104;2022-10-30T23:23:37;12.30;99.90
15184;DHT22;7693;49.266;7.104;2022-10-30T23:26:14;12.20;99.90
15184;DHT22;7693;49.266;7.104;2022-10-30T23:28:40;12.20;99.90
15184;DHT22;7693;49.266;7.104;2022-10-30T23:31:07;12.20;99.90
15184;DHT22;7693;49.266;7.104;2022-10-30T23:33:33;12.20;99.90
15184;DHT22;7693;49.266;7.104;2022-10-30T23:36:00;12.10;99.90
